createdAt,value
2022-10-18T00:02:57.210Z,12.00
2022-10-18T00:06:05.020Z,11.92
2022-10-18T00:09:11.652Z,11.86
2022-10-18T00:12:18.327Z,11.82
2022-10-18T00:15:25.084Z,11.79
2022-10-18T00:18:31.777Z,11.79
2022-10-18T00:21:38.490Z,11.74
2022-10-18T00:24:45.110Z,11.67
2022-10-18T00:27:52.992Z,11.63
2022-10-18T00:30:59.744Z,11.57
2022-10-18T00:34:09.071Z,11.54
2022-10-18T00:37:15.964Z,11.52
2022-10-18T00:40:22.493Z,11.50
2022-10-18T00:43:29.356Z,11.46
2022-10-18T00:46:37.867Z,11.43
2022-10-18T00:49:47.723Z,11.39
2022-10-18T00:53:01.759Z,11.35
2022-10-18T00:56:09.283Z,11.30
2022-10-18T00:59:17.928Z,11.26
2022-10-18T01:02:24.984Z,11.21
2022-10-18T01:05:31.723Z,11.19
2022-10-18T01:08:51.319Z,11.15
2022-10-18T01:12:14.263Z,11.13
2022-10-18T01:15:27.181Z,11.09
2022-10-18T01:18:41.393Z,11.09
2022-10-18T01:21:52.755Z,11.07
2022-10-18T01:25:07.935Z,11.05
2022-10-18T01:28:33.383Z,11.01
2022-10-18T01:31:46.291Z,10.98
2022-10-18T01:34:58.553Z,10.95
2022-10-18T01:38:11.453Z,10.90
2022-10-18T01:41:21.568Z,10.86
2022-10-18T01:44:30.710Z,10.83
2022-10-18T01:47:38.088Z,10.82
2022-10-18T01:50:44.925Z,10.78
2022-10-18T01:53:51.654Z,10.73
2022-10-18T01:57:03.913Z,10.67
2022-10-18T02:00:18.346Z,10.61
2022-10-18T02:03:28.712Z,10.58
2022-10-18T02:06:41.604Z,10.55
2022-10-18T02:09:52.933Z,10.52
2022-10-18T02:13:01.034Z,10.48
2022-10-18T02:16:11.564Z,10.45
2022-10-18T02:22:34.679Z,10.43
2022-10-18T02:25:41.933Z,10.39
2022-10-18T02:28:49.082Z,10.35
2022-10-18T02:32:01.946Z,10.33
2022-10-18T02:35:12.673Z,10.32
2022-10-18T02:38:24.908Z,10.31
2022-10-18T02:41:33.682Z,10.30
2022-10-18T02:44:43.326Z,10.28
2022-10-18T02:47:50.338Z,10.23
2022-10-18T02:50:56.888Z,10.19
2022-10-18T02:54:03.699Z,10.16
2022-10-18T02:57:10.449Z,10.12
2022-10-18T03:00:18.335Z,10.09
2022-10-18T03:03:25.162Z,10.08
2022-10-18T03:06:32.219Z,10.06
2022-10-18T03:09:41.081Z,10.03
2022-10-18T03:12:47.871Z,10.02
2022-10-18T03:15:54.573Z,10.05
2022-10-18T03:19:01.243Z,10.09
2022-10-18T03:22:08.003Z,10.12
2022-10-18T03:25:15.391Z,10.10
2022-10-18T03:28:22.059Z,10.09
2022-10-18T03:31:28.793Z,10.05
2022-10-18T03:34:35.376Z,10.01
2022-10-18T03:37:42.076Z,9.98
2022-10-18T03:40:48.665Z,9.99
2022-10-18T03:43:55.271Z,10.02
2022-10-18T03:47:01.906Z,10.03
2022-10-18T03:50:09.711Z,10.06
2022-10-18T03:53:16.761Z,10.11
2022-10-18T03:56:23.476Z,10.15
2022-10-18T03:59:30.084Z,10.19
2022-10-18T04:02:36.922Z,10.24
2022-10-18T04:05:43.650Z,10.31
2022-10-18T04:08:50.207Z,10.37
2022-10-18T04:11:56.865Z,10.42
2022-10-18T04:15:03.416Z,10.46
2022-10-18T04:18:10.303Z,10.51
2022-10-18T04:21:17.981Z,10.54
2022-10-18T04:24:24.782Z,10.60
2022-10-18T04:27:31.982Z,10.66
2022-10-18T04:30:39.184Z,10.70
2022-10-18T04:33:45.939Z,10.73
2022-10-18T04:36:52.634Z,10.74
2022-10-18T04:40:00.003Z,10.73
2022-10-18T04:43:06.754Z,10.74
2022-10-18T04:46:13.397Z,10.75
2022-10-18T04:49:20.091Z,10.77
2022-10-18T04:52:26.745Z,10.81
2022-10-18T04:55:34.549Z,10.78
2022-10-18T04:58:41.195Z,10.73
2022-10-18T05:01:48.988Z,10.68
2022-10-18T05:04:55.719Z,10.66
2022-10-18T05:08:02.270Z,10.62
2022-10-18T05:14:16.788Z,10.61
2022-10-18T05:17:23.406Z,10.64
2022-10-18T05:20:30.065Z,10.65
2022-10-18T05:23:36.740Z,10.69
2022-10-18T05:26:43.353Z,10.72
2022-10-18T05:29:50.102Z,10.76
2022-10-18T05:32:56.704Z,10.83
2022-10-18T05:36:03.274Z,10.90
2022-10-18T05:39:09.822Z,10.95
2022-10-18T05:42:16.343Z,11.01
2022-10-18T05:45:23.049Z,11.06
2022-10-18T05:48:29.642Z,11.12
2022-10-18T05:51:36.182Z,11.20
2022-10-18T05:54:43.078Z,11.28
2022-10-18T05:57:53.048Z,11.35
2022-10-18T06:01:02.381Z,11.44
2022-10-18T06:04:07.921Z,11.56
2022-10-18T06:07:14.837Z,11.71
2022-10-18T06:10:21.481Z,11.83
2022-10-18T06:13:31.092Z,11.97
2022-10-18T06:16:39.109Z,12.07
2022-10-18T06:19:45.893Z,12.17
2022-10-18T06:22:54.675Z,12.26
2022-10-18T06:26:04.136Z,12.35
2022-10-18T06:29:09.525Z,12.39
2022-10-18T06:32:16.326Z,12.43
2022-10-18T06:35:22.977Z,12.50
2022-10-18T06:38:30.742Z,12.58
2022-10-18T06:41:37.364Z,12.64
2022-10-18T06:44:55.095Z,12.73
2022-10-18T06:48:02.184Z,12.81
2022-10-18T06:51:09.855Z,12.89
2022-10-18T06:54:18.504Z,12.99
2022-10-18T06:57:25.683Z,13.15
2022-10-18T07:00:32.265Z,13.33
2022-10-18T07:03:39.074Z,13.47
2022-10-18T07:06:45.700Z,13.58
2022-10-18T07:09:52.241Z,13.69
2022-10-18T07:13:13.544Z,13.80
2022-10-18T07:16:25.648Z,13.88
2022-10-18T07:19:33.081Z,13.98
2022-10-18T07:22:39.989Z,14.07
2022-10-18T07:25:47.026Z,14.16
2022-10-18T07:28:58.009Z,14.26
2022-10-18T07:32:05.237Z,14.35
2022-10-18T07:38:24.110Z,14.54
2022-10-18T07:41:33.323Z,14.57
2022-10-18T07:44:39.334Z,14.61
2022-10-18T07:47:46.153Z,14.64
2022-10-18T07:50:53.126Z,14.72
2022-10-18T07:54:00.211Z,14.81
2022-10-18T07:57:07.952Z,14.91
2022-10-18T08:00:16.229Z,14.95
2022-10-18T08:03:23.314Z,14.97
2022-10-18T08:06:30.155Z,14.99
2022-10-18T08:09:36.879Z,15.03
2022-10-18T08:12:43.620Z,15.05
2022-10-18T08:15:50.541Z,15.08
2022-10-18T08:18:58.282Z,15.11
2022-10-18T08:22:05.036Z,15.15
2022-10-18T08:25:12.392Z,15.19
2022-10-18T08:28:19.060Z,15.22
2022-10-18T08:31:25.931Z,15.24
2022-10-18T08:34:33.900Z,15.28
2022-10-18T08:37:45.491Z,15.30
2022-10-18T08:40:52.427Z,15.33
2022-10-18T08:44:10.329Z,15.38
2022-10-18T08:47:20.582Z,15.46
2022-10-18T08:50:34.945Z,15.50
2022-10-18T08:53:53.056Z,15.49
2022-10-18T08:57:02.673Z,15.45
2022-10-18T09:00:18.260Z,15.40
2022-10-18T09:03:45.182Z,15.42
2022-10-18T09:07:03.288Z,15.44
2022-10-18T09:10:22.514Z,15.45
2022-10-18T09:13:37.804Z,15.46
2022-10-18T09:16:51.656Z,15.39
2022-10-18T09:20:12.186Z,15.31
2022-10-18T09:23:25.109Z,15.26
2022-10-18T09:26:40.713Z,15.23
2022-10-18T09:29:59.706Z,15.17
2022-10-18T09:33:24.596Z,15.12
2022-10-18T09:36:35.603Z,15.06
2022-10-18T09:39:43.577Z,15.00
2022-10-18T09:42:56.811Z,14.98
2022-10-18T09:46:04.883Z,15.01
2022-10-18T09:49:18.139Z,15.07
2022-10-18T09:52:31.679Z,15.09
2022-10-18T09:55:50.336Z,15.06
2022-10-18T09:58:57.152Z,14.99
2022-10-18T10:02:08.101Z,14.91
2022-10-18T10:05:17.107Z,14.86
2022-10-18T10:08:35.668Z,14.82
2022-10-18T10:11:47.883Z,14.78
2022-10-18T10:14:54.748Z,14.74
2022-10-18T10:18:04.993Z,14.74
2022-10-18T10:21:17.246Z,14.68
2022-10-18T10:24:44.246Z,14.63
2022-10-18T10:27:50.884Z,14.61
2022-10-18T10:31:17.291Z,14.61
2022-10-18T10:34:25.414Z,14.56
2022-10-18T10:37:38.868Z,14.50
2022-10-18T10:40:50.323Z,14.47
2022-10-18T10:43:57.430Z,14.46
2022-10-18T10:47:06.014Z,14.46
2022-10-18T10:50:14.960Z,14.46
2022-10-18T10:53:39.961Z,14.44
2022-10-18T10:56:56.730Z,14.40
2022-10-18T11:00:04.913Z,14.34
2022-10-18T11:03:28.947Z,14.29
2022-10-18T11:06:47.737Z,14.21
2022-10-18T11:10:02.454Z,14.13
2022-10-18T11:13:24.237Z,14.11
2022-10-18T11:16:37.023Z,14.10
2022-10-18T11:19:53.869Z,14.07
2022-10-18T11:23:04.787Z,14.05
2022-10-18T11:26:22.041Z,13.99
2022-10-18T11:29:56.087Z,13.98
2022-10-18T11:33:13.351Z,13.96
2022-10-18T11:36:26.374Z,13.96
2022-10-18T11:39:44.621Z,13.96
2022-10-18T11:42:59.915Z,13.99
2022-10-18T11:46:13.265Z,14.00
2022-10-18T11:49:44.994Z,14.03
2022-10-18T11:53:02.194Z,14.09
2022-10-18T11:56:17.531Z,14.15
2022-10-18T11:59:38.007Z,14.12
2022-10-18T12:02:58.981Z,14.06
2022-10-18T12:06:13.476Z,14.10
2022-10-18T12:09:28.841Z,14.16
2022-10-18T12:12:43.144Z,14.23
2022-10-18T12:15:50.976Z,14.32
2022-10-18T12:19:01.122Z,14.44
2022-10-18T12:22:19.911Z,14.50
2022-10-18T12:25:29.312Z,14.51
2022-10-18T12:28:48.339Z,14.54
2022-10-18T12:31:58.394Z,14.56
2022-10-18T12:35:13.025Z,14.55
2022-10-18T12:38:36.789Z,14.55
2022-10-18T12:41:48.203Z,14.56
2022-10-18T12:45:05.577Z,14.59
2022-10-18T12:48:30.976Z,14.54
2022-10-18T12:51:50.300Z,14.51
2022-10-18T12:55:22.583Z,14.49
2022-10-18T12:58:33.699Z,14.42
2022-10-18T13:02:20.700Z,14.36
2022-10-18T13:05:56.712Z,14.35
2022-10-18T13:09:23.550Z,14.32
2022-10-18T13:12:56.560Z,14.25
2022-10-18T13:16:12.948Z,14.14
2022-10-18T13:19:26.566Z,14.11
2022-10-18T13:22:49.488Z,14.05
2022-10-18T13:26:03.604Z,14.02
2022-10-18T13:29:31.992Z,13.99
2022-10-18T13:32:48.298Z,13.94
2022-10-18T13:35:57.940Z,13.90
2022-10-18T13:39:07.324Z,13.87
2022-10-18T13:42:34.792Z,13.85
2022-10-18T13:46:00.496Z,13.85
2022-10-18T13:49:29.136Z,13.84
2022-10-18T13:52:53.192Z,13.83
2022-10-18T13:56:47.301Z,13.83
2022-10-18T14:00:05.689Z,13.82
2022-10-18T14:07:06.139Z,13.83
2022-10-18T14:10:33.345Z,13.86
2022-10-18T14:13:53.177Z,13.84
2022-10-18T14:17:07.978Z,13.83
2022-10-18T14:20:29.416Z,13.83
2022-10-18T14:23:42.816Z,13.83
2022-10-18T14:27:11.340Z,13.84
2022-10-18T14:30:21.314Z,13.88
2022-10-18T14:33:36.854Z,13.94
2022-10-18T14:36:47.304Z,13.98
2022-10-18T14:39:54.239Z,14.00
2022-10-18T14:43:05.205Z,14.03
2022-10-18T14:46:17.756Z,14.01
2022-10-18T14:49:24.441Z,13.97
2022-10-18T14:52:35.671Z,13.92
2022-10-18T14:55:44.190Z,13.87
2022-10-18T14:58:52.326Z,13.80
2022-10-18T15:02:02.156Z,13.72
2022-10-18T15:05:19.374Z,13.66
2022-10-18T15:08:28.142Z,13.63
2022-10-18T15:11:35.046Z,13.61
2022-10-18T15:14:43.396Z,13.58
2022-10-18T15:17:52.562Z,13.55
2022-10-18T15:21:20.438Z,13.52
2022-10-18T15:24:34.632Z,13.48
2022-10-18T15:27:45.026Z,13.46
2022-10-18T15:30:51.864Z,13.45
2022-10-18T15:34:11.775Z,13.45
2022-10-18T15:37:30.206Z,13.42
2022-10-18T15:40:43.307Z,13.41
2022-10-18T15:43:50.263Z,13.38
2022-10-18T15:47:10.504Z,13.33
2022-10-18T15:50:41.130Z,13.29
2022-10-18T15:53:54.327Z,13.24
2022-10-18T15:57:07.978Z,13.20
2022-10-18T16:00:21.629Z,13.17
2022-10-18T16:03:29.339Z,13.16
2022-10-18T16:06:38.641Z,13.14
2022-10-18T16:09:45.570Z,13.11
2022-10-18T16:12:52.265Z,13.07
2022-10-18T16:16:00.305Z,13.05
2022-10-18T16:19:07.363Z,13.02
2022-10-18T16:22:16.180Z,12.98
2022-10-18T16:25:22.954Z,12.95
2022-10-18T16:28:31.892Z,12.92
2022-10-18T16:31:38.702Z,12.91
2022-10-18T16:34:45.450Z,12.91
2022-10-18T16:37:52.377Z,12.92
2022-10-18T16:40:59.682Z,12.90
2022-10-18T16:44:06.602Z,12.85
2022-10-18T16:47:13.950Z,12.81
2022-10-18T16:50:22.892Z,12.76
2022-10-18T16:53:29.942Z,12.73
2022-10-18T16:56:36.780Z,12.68
2022-10-18T16:59:43.526Z,12.62
2022-10-18T17:02:50.835Z,12.56
2022-10-18T17:05:57.845Z,12.50
2022-10-18T17:09:04.727Z,12.45
2022-10-18T17:12:11.380Z,12.41
2022-10-18T17:15:18.416Z,12.38
2022-10-18T17:18:27.591Z,12.35
2022-10-18T17:21:34.817Z,12.32
2022-10-18T17:24:41.459Z,12.28
2022-10-18T17:27:48.555Z,12.25
2022-10-18T17:30:55.260Z,12.21
2022-10-18T17:34:02.536Z,12.15
2022-10-18T17:37:11.542Z,12.11
2022-10-18T17:40:18.605Z,12.04
2022-10-18T17:43:25.203Z,11.98
2022-10-18T17:46:31.999Z,11.91
2022-10-18T17:49:38.713Z,11.87
2022-10-18T17:52:47.077Z,11.87
2022-10-18T17:56:02.333Z,11.89
2022-10-18T17:59:09.661Z,11.93
2022-10-18T18:02:16.583Z,11.97
2022-10-18T18:05:23.308Z,11.99
2022-10-18T18:08:30.811Z,12.01
2022-10-18T18:11:39.278Z,12.00
2022-10-18T18:14:46.120Z,12.00
2022-10-18T18:17:57.056Z,11.96
2022-10-18T18:21:04.522Z,11.89
2022-10-18T18:24:12.597Z,11.82
2022-10-18T18:27:19.258Z,11.76
2022-10-18T18:30:26.005Z,11.74
2022-10-18T18:33:34.816Z,11.70
2022-10-18T18:36:41.758Z,11.67
2022-10-18T18:39:48.702Z,11.67
2022-10-18T18:43:07.220Z,11.66
2022-10-18T18:46:22.868Z,11.66
2022-10-18T18:49:31.603Z,11.63
2022-10-18T18:52:38.375Z,11.58
2022-10-18T18:55:48.658Z,11.50
2022-10-18T18:58:56.853Z,11.41
2022-10-18T19:02:03.528Z,11.31
2022-10-18T19:05:10.740Z,11.21
2022-10-18T19:08:17.473Z,11.14
2022-10-18T19:11:25.037Z,11.06
2022-10-18T19:14:31.542Z,11.00
2022-10-18T19:17:38.348Z,10.93
2022-10-18T19:20:44.992Z,10.88
2022-10-18T19:23:52.051Z,10.84
2022-10-18T19:27:00.805Z,10.79
2022-10-18T19:30:09.873Z,10.75
2022-10-18T19:33:35.393Z,10.74
2022-10-18T19:36:50.095Z,10.74
2022-10-18T19:39:56.750Z,10.76
2022-10-18T19:43:03.363Z,10.73
2022-10-18T19:46:11.216Z,10.73
2022-10-18T19:49:18.608Z,10.73
2022-10-18T19:52:25.235Z,10.69
2022-10-18T19:55:32.019Z,10.67
2022-10-18T19:58:38.640Z,10.66
2022-10-18T20:01:46.396Z,10.62
2022-10-18T20:04:53.132Z,10.59
2022-10-18T20:07:59.966Z,10.53
2022-10-18T20:11:09.020Z,10.47
2022-10-18T20:14:15.675Z,10.43
2022-10-18T20:17:22.352Z,10.40
2022-10-18T20:20:28.905Z,10.38
2022-10-18T20:23:39.079Z,10.34
2022-10-18T20:26:45.721Z,10.28
2022-10-18T20:29:52.496Z,10.22
2022-10-18T20:32:59.259Z,10.17
2022-10-18T20:36:08.367Z,10.12
2022-10-18T20:39:15.053Z,10.06
2022-10-18T20:42:21.719Z,9.99
2022-10-18T20:45:28.450Z,9.92
2022-10-18T20:48:35.910Z,9.85
2022-10-18T20:51:42.770Z,9.78
2022-10-18T20:54:49.561Z,9.72
2022-10-18T20:57:56.317Z,9.69
2022-10-18T21:01:09.658Z,9.65
2022-10-18T21:04:16.387Z,9.61
2022-10-18T21:07:23.032Z,9.58
2022-10-18T21:10:29.643Z,9.55
2022-10-18T21:13:36.598Z,9.51
2022-10-18T21:16:43.973Z,9.48
2022-10-18T21:19:50.614Z,9.47
2022-10-18T21:22:57.521Z,9.45
2022-10-18T21:26:04.349Z,9.45
2022-10-18T21:29:12.403Z,9.43
2022-10-18T21:32:19.235Z,9.39
2022-10-18T21:35:25.782Z,9.37
2022-10-18T21:38:32.611Z,9.34
2022-10-18T21:41:39.187Z,9.32
2022-10-18T21:44:46.011Z,9.29
2022-10-18T21:47:52.642Z,9.24
2022-10-18T21:51:02.724Z,9.21
2022-10-18T21:54:12.567Z,9.17
2022-10-18T21:57:19.262Z,9.16
2022-10-18T22:00:25.896Z,9.12
2022-10-18T22:03:32.649Z,9.08
2022-10-18T22:06:39.261Z,9.04
2022-10-18T22:09:46.051Z,9.00
2022-10-18T22:12:52.632Z,8.99
2022-10-18T22:16:03.253Z,8.96
2022-10-18T22:19:10.198Z,8.93
2022-10-18T22:22:16.820Z,8.91
2022-10-18T22:25:23.533Z,8.90
2022-10-18T22:28:30.283Z,8.90
2022-10-18T22:31:39.543Z,8.94
2022-10-18T22:34:46.200Z,8.98
2022-10-18T22:37:56.030Z,9.00
2022-10-18T22:41:06.395Z,9.01
2022-10-18T22:44:15.697Z,9.00
2022-10-18T22:47:22.409Z,8.99
2022-10-18T22:50:29.038Z,9.00
2022-10-18T22:53:36.261Z,9.01
2022-10-18T22:56:42.949Z,9.03
2022-10-18T22:59:49.474Z,9.06
2022-10-18T23:02:56.138Z,9.07
2022-10-18T23:06:03.272Z,9.10
2022-10-18T23:09:11.725Z,9.15
2022-10-18T23:12:18.580Z,9.21
2022-10-18T23:15:25.179Z,9.28
2022-10-18T23:18:32.376Z,9.35
2022-10-18T23:21:39.039Z,9.43
2022-10-18T23:24:45.589Z,9.47
2022-10-18T23:27:52.357Z,9.49
2022-10-18T23:30:59.067Z,9.49
2022-10-18T23:34:07.026Z,9.48
2022-10-18T23:37:13.639Z,9.47
2022-10-18T23:40:20.484Z,9.46
2022-10-18T23:43:27.235Z,9.46
2022-10-18T23:46:33.891Z,9.49
2022-10-18T23:49:40.459Z,9.52
2022-10-18T23:52:47.085Z,9.57
2022-10-18T23:55:57.987Z,9.62
2022-10-18T23:59:04.737Z,9.66
